sensor_id;sensor_type;location;lat;lon;timestamp;P1;durP1;ratioP1;P2;durP2;ratioP2
68940;SDS011;55982;51.476;7.552;2022-12-07T00:02:14;126.35;;;55.15;;
68940;SDS011;55982;51.476;7.552;2022-12-07T00:04:39;123.72;;;55.55;;
68940;SDS011;55982;51.476;7.552;2022-12-07T00:07:05;125.10;;;55.17;;
68940;SDS011;55982;51.476;7.552;2022-12-07T00:09:30;125.28;;;56.60;;
68940;SDS011;55982;51.476;7.552;2022-12-07T00:11:55;125.10;;;55.33;;
68940;SDS011;55982;51.476;7.552;2022-12-07T00:14:21;125.43;;;57.13;;
68940;SDS011;55982;51.476;7.552;2022-12-07T00:16:48;125.47;;;54.75;;
68940;SDS011;55982;51.476;7.552;2022-12-07T00:19:14;126.93;;;55.38;;
68940;SDS011;55982;51.476;7.552;2022-12-07T00:21:40;125.03;;;55.58;;
68940;SDS011;55982;51.476;7.552;2022-12-07T00:24:06;121.45;;;55.63;;
68940;SDS011;55982;51.476;7.552;2022-12-07T00:26:33;126.55;;;55.28;;
68940;SDS011;55982;51.476;7.552;2022-12-07T00:29:01;120.95;;;52.90;;
68940;SDS011;55982;51.476;7.552;2022-12-07T00:31:32;133.90;;;56.47;;
68940;SDS011;55982;51.476;7.552;2022-12-07T00:34:01;120.30;;;54.13;;
68940;SDS011;55982;51.476;7.552;2022-12-07T00:36:26;121.05;;;54.05;;
68940;SDS011;55982;51.476;7.552;2022-12-07T00:38:53;120.55;;;53.85;;
68940;SDS011;55982;51.476;7.552;2022-12-07T00:41:20;108.70;;;52.15;;
68940;SDS011;55982;51.476;7.552;2022-12-07T00:43:47;109.45;;;50.15;;
68940;SDS011;55982;51.476;7.552;2022-12-07T00:46:14;117.88;;;50.65;;
68940;SDS011;55982;51.476;7.552;2022-12-07T00:48:41;116.82;;;49.42;;
68940;SDS011;55982;51.476;7.552;2022-12-07T00:51:07;114.43;;;49.20;;
68940;SDS011;55982;51.476;7.552;2022-12-07T00:53:34;113.80;;;49.10;;
68940;SDS011;55982;51.476;7.552;2022-12-07T00:56:04;114.30;;;51.38;;
68940;SDS011;55982;51.476;7.552;2022-12-07T00:58:31;111.05;;;51.67;;
68940;SDS011;55982;51.476;7.552;2022-12-07T01:00:56;112.32;;;51.28;;
68940;SDS011;55982;51.476;7.552;2022-12-07T01:03:28;113.70;;;52.15;;
68940;SDS011;55982;51.476;7.552;2022-12-07T01:05:54;120.57;;;53.33;;
68940;SDS011;55982;51.476;7.552;2022-12-07T01:08:21;109.93;;;53.13;;
68940;SDS011;55982;51.476;7.552;2022-12-07T01:10:47;117.55;;;54.55;;
68940;SDS011;55982;51.476;7.552;2022-12-07T01:13:13;126.85;;;55.85;;
68940;SDS011;55982;51.476;7.552;2022-12-07T01:15:39;112.32;;;53.78;;
68940;SDS011;55982;51.476;7.552;2022-12-07T01:18:10;121.93;;;53.20;;
68940;SDS011;55982;51.476;7.552;2022-12-07T01:20:36;116.18;;;52.97;;
68940;SDS011;55982;51.476;7.552;2022-12-07T01:23:02;112.88;;;52.15;;
68940;SDS011;55982;51.476;7.552;2022-12-07T01:25:28;108.72;;;51.92;;
68940;SDS011;55982;51.476;7.552;2022-12-07T01:27:53;117.05;;;49.40;;
68940;SDS011;55982;51.476;7.552;2022-12-07T01:30:19;98.97;;;49.55;;
68940;SDS011;55982;51.476;7.552;2022-12-07T01:32:44;106.50;;;49.03;;
68940;SDS011;55982;51.476;7.552;2022-12-07T01:35:10;101.65;;;49.92;;
68940;SDS011;55982;51.476;7.552;2022-12-07T01:37:36;99.45;;;49.25;;
68940;SDS011;55982;51.476;7.552;2022-12-07T01:40:03;103.93;;;49.88;;
68940;SDS011;55982;51.476;7.552;2022-12-07T01:42:30;99.18;;;49.85;;
68940;SDS011;55982;51.476;7.552;2022-12-07T01:48:04;103.60;;;49.75;;
68940;SDS011;55982;51.476;7.552;2022-12-07T01:52:56;95.63;;;46.63;;
68940;SDS011;55982;51.476;7.552;2022-12-07T01:55:24;104.72;;;49.28;;
68940;SDS011;55982;51.476;7.552;2022-12-07T01:57:51;101.93;;;49.92;;
68940;SDS011;55982;51.476;7.552;2022-12-07T02:00:19;104.75;;;50.70;;
68940;SDS011;55982;51.476;7.552;2022-12-07T02:05:26;104.95;;;48.97;;
68940;SDS011;55982;51.476;7.552;2022-12-07T02:07:53;103.82;;;48.47;;
68940;SDS011;55982;51.476;7.552;2022-12-07T02:10:25;104.00;;;50.30;;
68940;SDS011;55982;51.476;7.552;2022-12-07T02:12:57;100.53;;;49.03;;
68940;SDS011;55982;51.476;7.552;2022-12-07T02:15:28;99.88;;;48.08;;
68940;SDS011;55982;51.476;7.552;2022-12-07T02:26:15;89.25;;;44.17;;
68940;SDS011;55982;51.476;7.552;2022-12-07T02:36:57;106.80;;;48.55;;
68940;SDS011;55982;51.476;7.552;2022-12-07T02:39:31;99.72;;;48.75;;
68940;SDS011;55982;51.476;7.552;2022-12-07T02:42:00;97.72;;;46.90;;
68940;SDS011;55982;51.476;7.552;2022-12-07T02:44:32;99.15;;;47.35;;
68940;SDS011;55982;51.476;7.552;2022-12-07T02:47:01;106.57;;;47.50;;
68940;SDS011;55982;51.476;7.552;2022-12-07T02:49:30;95.25;;;44.78;;
68940;SDS011;55982;51.476;7.552;2022-12-07T02:51:56;92.55;;;46.28;;
68940;SDS011;55982;51.476;7.552;2022-12-07T02:54:22;92.95;;;45.28;;
68940;SDS011;55982;51.476;7.552;2022-12-07T02:59:51;97.13;;;43.58;;
68940;SDS011;55982;51.476;7.552;2022-12-07T03:13:28;94.88;;;45.20;;
68940;SDS011;55982;51.476;7.552;2022-12-07T03:16:17;91.45;;;44.05;;
68940;SDS011;55982;51.476;7.552;2022-12-07T03:18:59;90.88;;;44.90;;
68940;SDS011;55982;51.476;7.552;2022-12-07T03:21:32;92.05;;;43.90;;
68940;SDS011;55982;51.476;7.552;2022-12-07T03:24:03;97.57;;;44.35;;
68940;SDS011;55982;51.476;7.552;2022-12-07T03:26:37;88.03;;;43.05;;
68940;SDS011;55982;51.476;7.552;2022-12-07T03:29:08;90.78;;;42.60;;
68940;SDS011;55982;51.476;7.552;2022-12-07T03:34:11;91.88;;;42.10;;
68940;SDS011;55982;51.476;7.552;2022-12-07T03:36:48;89.20;;;43.00;;
68940;SDS011;55982;51.476;7.552;2022-12-07T03:39:26;90.13;;;43.30;;
68940;SDS011;55982;51.476;7.552;2022-12-07T03:42:00;93.55;;;43.08;;
68940;SDS011;55982;51.476;7.552;2022-12-07T03:44:29;85.35;;;41.72;;
68940;SDS011;55982;51.476;7.552;2022-12-07T03:47:15;90.38;;;44.33;;
68940;SDS011;55982;51.476;7.552;2022-12-07T03:49:54;88.25;;;43.05;;
68940;SDS011;55982;51.476;7.552;2022-12-07T03:52:41;86.70;;;42.50;;
68940;SDS011;55982;51.476;7.552;2022-12-07T03:55:18;88.10;;;42.00;;
68940;SDS011;55982;51.476;7.552;2022-12-07T03:57:48;87.38;;;43.15;;
68940;SDS011;55982;51.476;7.552;2022-12-07T04:00:21;83.90;;;42.38;;
68940;SDS011;55982;51.476;7.552;2022-12-07T04:02:53;90.05;;;41.28;;
68940;SDS011;55982;51.476;7.552;2022-12-07T04:05:18;90.25;;;44.47;;
68940;SDS011;55982;51.476;7.552;2022-12-07T04:07:44;93.45;;;43.72;;
68940;SDS011;55982;51.476;7.552;2022-12-07T04:10:10;93.78;;;44.83;;
68940;SDS011;55982;51.476;7.552;2022-12-07T04:12:36;105.45;;;45.33;;
68940;SDS011;55982;51.476;7.552;2022-12-07T04:15:02;95.13;;;44.42;;
68940;SDS011;55982;51.476;7.552;2022-12-07T04:17:28;96.80;;;40.15;;
68940;SDS011;55982;51.476;7.552;2022-12-07T04:19:53;93.25;;;42.70;;
68940;SDS011;55982;51.476;7.552;2022-12-07T04:22:19;93.60;;;42.70;;
68940;SDS011;55982;51.476;7.552;2022-12-07T04:24:45;91.85;;;41.60;;
68940;SDS011;55982;51.476;7.552;2022-12-07T04:27:10;97.75;;;44.03;;
68940;SDS011;55982;51.476;7.552;2022-12-07T04:29:39;95.53;;;43.47;;
68940;SDS011;55982;51.476;7.552;2022-12-07T04:32:04;90.20;;;41.60;;
68940;SDS011;55982;51.476;7.552;2022-12-07T04:34:30;99.28;;;43.58;;
68940;SDS011;55982;51.476;7.552;2022-12-07T04:36:58;95.22;;;42.13;;
68940;SDS011;55982;51.476;7.552;2022-12-07T04:39:28;87.18;;;39.67;;
68940;SDS011;55982;51.476;7.552;2022-12-07T04:41:55;88.35;;;40.58;;
68940;SDS011;55982;51.476;7.552;2022-12-07T04:44:21;88.50;;;41.20;;
68940;SDS011;55982;51.476;7.552;2022-12-07T04:46:49;89.15;;;40.67;;
68940;SDS011;55982;51.476;7.552;2022-12-07T04:49:15;96.32;;;40.63;;
68940;SDS011;55982;51.476;7.552;2022-12-07T04:51:41;84.40;;;40.72;;
68940;SDS011;55982;51.476;7.552;2022-12-07T04:54:07;92.32;;;40.83;;
68940;SDS011;55982;51.476;7.552;2022-12-07T04:56:33;90.90;;;39.40;;
68940;SDS011;55982;51.476;7.552;2022-12-07T04:59:00;80.88;;;37.90;;
68940;SDS011;55982;51.476;7.552;2022-12-07T05:01:26;85.07;;;39.92;;
68940;SDS011;55982;51.476;7.552;2022-12-07T05:03:51;72.38;;;36.08;;
68940;SDS011;55982;51.476;7.552;2022-12-07T05:06:17;78.18;;;36.33;;
68940;SDS011;55982;51.476;7.552;2022-12-07T05:08:43;74.63;;;35.83;;
68940;SDS011;55982;51.476;7.552;2022-12-07T05:11:08;73.88;;;35.35;;
68940;SDS011;55982;51.476;7.552;2022-12-07T05:13:55;79.47;;;35.85;;
68940;SDS011;55982;51.476;7.552;2022-12-07T05:16:20;74.85;;;36.03;;
68940;SDS011;55982;51.476;7.552;2022-12-07T05:18:46;79.88;;;37.53;;
68940;SDS011;55982;51.476;7.552;2022-12-07T05:21:11;72.47;;;33.20;;
68940;SDS011;55982;51.476;7.552;2022-12-07T05:23:37;73.20;;;34.78;;
68940;SDS011;55982;51.476;7.552;2022-12-07T05:26:02;74.82;;;35.47;;
68940;SDS011;55982;51.476;7.552;2022-12-07T05:28:27;72.15;;;32.72;;
68940;SDS011;55982;51.476;7.552;2022-12-07T05:30:53;73.90;;;34.53;;
68940;SDS011;55982;51.476;7.552;2022-12-07T05:33:18;71.97;;;35.10;;
68940;SDS011;55982;51.476;7.552;2022-12-07T05:35:44;72.50;;;36.10;;
68940;SDS011;55982;51.476;7.552;2022-12-07T05:38:09;77.22;;;34.95;;
68940;SDS011;55982;51.476;7.552;2022-12-07T05:40:34;75.22;;;36.67;;
68940;SDS011;55982;51.476;7.552;2022-12-07T05:43:02;74.75;;;34.40;;
68940;SDS011;55982;51.476;7.552;2022-12-07T05:45:27;84.45;;;38.22;;
68940;SDS011;55982;51.476;7.552;2022-12-07T05:47:53;89.22;;;39.40;;
68940;SDS011;55982;51.476;7.552;2022-12-07T05:50:24;91.18;;;38.10;;
68940;SDS011;55982;51.476;7.552;2022-12-07T05:52:52;89.50;;;39.13;;
68940;SDS011;55982;51.476;7.552;2022-12-07T05:55:20;96.43;;;39.67;;
68940;SDS011;55982;51.476;7.552;2022-12-07T05:57:46;86.28;;;39.15;;
68940;SDS011;55982;51.476;7.552;2022-12-07T06:00:30;85.53;;;37.55;;
68940;SDS011;55982;51.476;7.552;2022-12-07T06:02:56;82.40;;;37.33;;
68940;SDS011;55982;51.476;7.552;2022-12-07T06:05:21;89.65;;;37.97;;
68940;SDS011;55982;51.476;7.552;2022-12-07T06:07:47;85.20;;;38.63;;
68940;SDS011;55982;51.476;7.552;2022-12-07T06:10:12;72.55;;;34.15;;
68940;SDS011;55982;51.476;7.552;2022-12-07T06:12:38;76.80;;;35.58;;
68940;SDS011;55982;51.476;7.552;2022-12-07T06:15:05;72.90;;;35.17;;
68940;SDS011;55982;51.476;7.552;2022-12-07T06:17:31;72.60;;;34.72;;
68940;SDS011;55982;51.476;7.552;2022-12-07T06:19:57;79.25;;;35.88;;
68940;SDS011;55982;51.476;7.552;2022-12-07T06:22:22;90.85;;;38.20;;
68940;SDS011;55982;51.476;7.552;2022-12-07T06:24:47;83.57;;;37.33;;
68940;SDS011;55982;51.476;7.552;2022-12-07T06:27:13;83.82;;;37.25;;
68940;SDS011;55982;51.476;7.552;2022-12-07T06:29:38;86.68;;;35.45;;
68940;SDS011;55982;51.476;7.552;2022-12-07T06:32:05;82.28;;;33.10;;
68940;SDS011;55982;51.476;7.552;2022-12-07T06:34:31;72.50;;;33.63;;
68940;SDS011;55982;51.476;7.552;2022-12-07T06:36:56;78.38;;;32.72;;
68940;SDS011;55982;51.476;7.552;2022-12-07T06:39:23;71.30;;;31.35;;
68940;SDS011;55982;51.476;7.552;2022-12-07T06:41:50;74.47;;;35.55;;
68940;SDS011;55982;51.476;7.552;2022-12-07T06:44:19;79.32;;;35.20;;
68940;SDS011;55982;51.476;7.552;2022-12-07T06:46:45;64.25;;;34.00;;
68940;SDS011;55982;51.476;7.552;2022-12-07T06:49:11;74.22;;;33.47;;
68940;SDS011;55982;51.476;7.552;2022-12-07T06:51:37;69.75;;;32.65;;
68940;SDS011;55982;51.476;7.552;2022-12-07T06:54:06;66.07;;;32.58;;
68940;SDS011;55982;51.476;7.552;2022-12-07T06:56:35;67.90;;;32.92;;
68940;SDS011;55982;51.476;7.552;2022-12-07T06:59:03;72.35;;;33.63;;
68940;SDS011;55982;51.476;7.552;2022-12-07T07:01:30;79.28;;;35.08;;
68940;SDS011;55982;51.476;7.552;2022-12-07T07:03:57;71.38;;;33.42;;
68940;SDS011;55982;51.476;7.552;2022-12-07T07:06:22;77.20;;;35.15;;
68940;SDS011;55982;51.476;7.552;2022-12-07T07:08:48;80.32;;;34.75;;
68940;SDS011;55982;51.476;7.552;2022-12-07T07:11:14;68.55;;;33.00;;
68940;SDS011;55982;51.476;7.552;2022-12-07T07:13:40;74.18;;;34.38;;
68940;SDS011;55982;51.476;7.552;2022-12-07T07:16:05;80.10;;;34.95;;
68940;SDS011;55982;51.476;7.552;2022-12-07T07:18:31;84.78;;;36.15;;
68940;SDS011;55982;51.476;7.552;2022-12-07T07:20:57;83.57;;;36.13;;
68940;SDS011;55982;51.476;7.552;2022-12-07T07:23:23;84.07;;;35.28;;
68940;SDS011;55982;51.476;7.552;2022-12-07T07:25:55;81.35;;;36.72;;
68940;SDS011;55982;51.476;7.552;2022-12-07T07:28:21;90.55;;;38.03;;
68940;SDS011;55982;51.476;7.552;2022-12-07T07:30:48;83.75;;;35.65;;
68940;SDS011;55982;51.476;7.552;2022-12-07T07:33:14;80.03;;;36.25;;
68940;SDS011;55982;51.476;7.552;2022-12-07T07:35:40;76.47;;;35.17;;
68940;SDS011;55982;51.476;7.552;2022-12-07T07:38:06;76.68;;;34.55;;
68940;SDS011;55982;51.476;7.552;2022-12-07T07:40:32;73.82;;;35.17;;
68940;SDS011;55982;51.476;7.552;2022-12-07T07:42:57;79.57;;;35.55;;
68940;SDS011;55982;51.476;7.552;2022-12-07T07:45:24;71.60;;;34.55;;
68940;SDS011;55982;51.476;7.552;2022-12-07T07:47:51;73.25;;;33.63;;
68940;SDS011;55982;51.476;7.552;2022-12-07T07:50:17;77.97;;;33.50;;
68940;SDS011;55982;51.476;7.552;2022-12-07T07:52:43;74.95;;;32.33;;
68940;SDS011;55982;51.476;7.552;2022-12-07T07:55:09;73.75;;;32.50;;
68940;SDS011;55982;51.476;7.552;2022-12-07T07:57:36;81.07;;;32.40;;
68940;SDS011;55982;51.476;7.552;2022-12-07T08:00:13;71.07;;;33.00;;
68940;SDS011;55982;51.476;7.552;2022-12-07T08:02:40;72.93;;;32.40;;
68940;SDS011;55982;51.476;7.552;2022-12-07T08:05:07;71.35;;;31.98;;
68940;SDS011;55982;51.476;7.552;2022-12-07T08:07:33;71.72;;;31.63;;
68940;SDS011;55982;51.476;7.552;2022-12-07T08:09:59;71.45;;;32.08;;
68940;SDS011;55982;51.476;7.552;2022-12-07T08:12:25;77.75;;;32.05;;
68940;SDS011;55982;51.476;7.552;2022-12-07T08:14:50;77.45;;;31.85;;
68940;SDS011;55982;51.476;7.552;2022-12-07T08:17:16;74.45;;;30.73;;
68940;SDS011;55982;51.476;7.552;2022-12-07T08:19:42;61.97;;;29.88;;
68940;SDS011;55982;51.476;7.552;2022-12-07T08:22:08;63.83;;;28.55;;
68940;SDS011;55982;51.476;7.552;2022-12-07T08:24:34;64.18;;;28.13;;
68940;SDS011;55982;51.476;7.552;2022-12-07T08:27:00;61.58;;;28.48;;
68940;SDS011;55982;51.476;7.552;2022-12-07T08:29:25;57.78;;;27.30;;
68940;SDS011;55982;51.476;7.552;2022-12-07T08:31:51;59.35;;;26.63;;
68940;SDS011;55982;51.476;7.552;2022-12-07T08:34:16;54.05;;;25.70;;
68940;SDS011;55982;51.476;7.552;2022-12-07T08:36:42;54.15;;;26.10;;
68940;SDS011;55982;51.476;7.552;2022-12-07T08:39:08;50.67;;;24.48;;
68940;SDS011;55982;51.476;7.552;2022-12-07T08:41:33;48.20;;;24.45;;
68940;SDS011;55982;51.476;7.552;2022-12-07T08:43:59;49.97;;;23.98;;
68940;SDS011;55982;51.476;7.552;2022-12-07T08:46:32;40.63;;;22.73;;
68940;SDS011;55982;51.476;7.552;2022-12-07T08:49:07;50.15;;;22.55;;
68940;SDS011;55982;51.476;7.552;2022-12-07T08:51:38;45.03;;;21.57;;
68940;SDS011;55982;51.476;7.552;2022-12-07T08:54:08;43.40;;;20.40;;
68940;SDS011;55982;51.476;7.552;2022-12-07T08:56:36;33.33;;;18.50;;
68940;SDS011;55982;51.476;7.552;2022-12-07T08:59:04;38.85;;;18.25;;
68940;SDS011;55982;51.476;7.552;2022-12-07T09:01:30;36.70;;;17.52;;
68940;SDS011;55982;51.476;7.552;2022-12-07T09:03:55;35.15;;;18.27;;
68940;SDS011;55982;51.476;7.552;2022-12-07T09:06:21;32.95;;;17.80;;
68940;SDS011;55982;51.476;7.552;2022-12-07T09:08:47;35.03;;;18.02;;
68940;SDS011;55982;51.476;7.552;2022-12-07T09:11:17;30.38;;;16.45;;
68940;SDS011;55982;51.476;7.552;2022-12-07T09:13:43;30.50;;;16.48;;
68940;SDS011;55982;51.476;7.552;2022-12-07T09:16:08;31.65;;;17.63;;
68940;SDS011;55982;51.476;7.552;2022-12-07T09:18:35;40.40;;;17.48;;
68940;SDS011;55982;51.476;7.552;2022-12-07T09:21:00;32.72;;;16.70;;
68940;SDS011;55982;51.476;7.552;2022-12-07T09:23:26;32.63;;;16.85;;
68940;SDS011;55982;51.476;7.552;2022-12-07T09:25:51;33.83;;;16.33;;
68940;SDS011;55982;51.476;7.552;2022-12-07T09:28:18;32.63;;;16.05;;
68940;SDS011;55982;51.476;7.552;2022-12-07T09:30:47;36.00;;;17.05;;
68940;SDS011;55982;51.476;7.552;2022-12-07T09:33:13;38.70;;;16.98;;
68940;SDS011;55982;51.476;7.552;2022-12-07T09:35:43;33.17;;;17.27;;
68940;SDS011;55982;51.476;7.552;2022-12-07T09:38:12;42.45;;;17.70;;
68940;SDS011;55982;51.476;7.552;2022-12-07T09:40:38;37.83;;;17.80;;
68940;SDS011;55982;51.476;7.552;2022-12-07T09:43:03;36.20;;;17.20;;
68940;SDS011;55982;51.476;7.552;2022-12-07T09:45:35;34.85;;;17.23;;
68940;SDS011;55982;51.476;7.552;2022-12-07T09:48:02;41.63;;;18.23;;
68940;SDS011;55982;51.476;7.552;2022-12-07T09:50:28;40.17;;;19.63;;
68940;SDS011;55982;51.476;7.552;2022-12-07T09:53:01;45.60;;;20.10;;
68940;SDS011;55982;51.476;7.552;2022-12-07T09:55:38;41.67;;;18.92;;
68940;SDS011;55982;51.476;7.552;2022-12-07T09:58:16;42.50;;;18.98;;
68940;SDS011;55982;51.476;7.552;2022-12-07T10:00:46;38.45;;;19.25;;
68940;SDS011;55982;51.476;7.552;2022-12-07T10:03:11;38.70;;;18.92;;
68940;SDS011;55982;51.476;7.552;2022-12-07T10:05:47;36.35;;;18.33;;
68940;SDS011;55982;51.476;7.552;2022-12-07T10:08:15;32.58;;;18.35;;
68940;SDS011;55982;51.476;7.552;2022-12-07T10:10:42;46.13;;;20.02;;
68940;SDS011;55982;51.476;7.552;2022-12-07T10:15:43;35.50;;;18.88;;
68940;SDS011;55982;51.476;7.552;2022-12-07T10:21:14;52.70;;;21.45;;
68940;SDS011;55982;51.476;7.552;2022-12-07T10:24:03;39.35;;;21.90;;
68940;SDS011;55982;51.476;7.552;2022-12-07T10:26:34;52.53;;;22.02;;
68940;SDS011;55982;51.476;7.552;2022-12-07T10:29:03;40.03;;;22.55;;
68940;SDS011;55982;51.476;7.552;2022-12-07T10:31:40;49.70;;;23.90;;
68940;SDS011;55982;51.476;7.552;2022-12-07T10:34:15;45.63;;;22.30;;
68940;SDS011;55982;51.476;7.552;2022-12-07T10:39:47;44.50;;;24.85;;
68940;SDS011;55982;51.476;7.552;2022-12-07T10:42:25;51.78;;;25.08;;
68940;SDS011;55982;51.476;7.552;2022-12-07T10:47:38;49.33;;;26.30;;
68940;SDS011;55982;51.476;7.552;2022-12-07T10:56:02;52.03;;;25.42;;
68940;SDS011;55982;51.476;7.552;2022-12-07T11:01:31;44.13;;;23.67;;
68940;SDS011;55982;51.476;7.552;2022-12-07T11:04:07;40.28;;;23.75;;
68940;SDS011;55982;51.476;7.552;2022-12-07T11:12:33;41.20;;;21.42;;
68940;SDS011;55982;51.476;7.552;2022-12-07T11:20:12;44.30;;;20.35;;
68940;SDS011;55982;51.476;7.552;2022-12-07T11:23:02;37.85;;;19.52;;
68940;SDS011;55982;51.476;7.552;2022-12-07T11:33:58;36.65;;;18.77;;
68940;SDS011;55982;51.476;7.552;2022-12-07T11:37:03;31.58;;;15.95;;
68940;SDS011;55982;51.476;7.552;2022-12-07T11:41:48;25.95;;;14.02;;
68940;SDS011;55982;51.476;7.552;2022-12-07T11:47:27;27.33;;;14.15;;
68940;SDS011;55982;51.476;7.552;2022-12-07T11:53:00;25.50;;;13.07;;
68940;SDS011;55982;51.476;7.552;2022-12-07T11:55:47;29.85;;;14.35;;
68940;SDS011;55982;51.476;7.552;2022-12-07T11:58:49;24.80;;;14.10;;
68940;SDS011;55982;51.476;7.552;2022-12-07T12:06:41;27.08;;;14.60;;
68940;SDS011;55982;51.476;7.552;2022-12-07T12:09:15;25.90;;;12.75;;
68940;SDS011;55982;51.476;7.552;2022-12-07T12:14:48;24.92;;;12.60;;
68940;SDS011;55982;51.476;7.552;2022-12-07T12:25:46;25.10;;;10.40;;
68940;SDS011;55982;51.476;7.552;2022-12-07T12:28:28;25.20;;;11.27;;
68940;SDS011;55982;51.476;7.552;2022-12-07T12:31:11;26.10;;;10.50;;
68940;SDS011;55982;51.476;7.552;2022-12-07T12:33:42;22.17;;;9.85;;
68940;SDS011;55982;51.476;7.552;2022-12-07T12:47:03;24.65;;;10.65;;
68940;SDS011;55982;51.476;7.552;2022-12-07T12:52:49;16.70;;;9.32;;
68940;SDS011;55982;51.476;7.552;2022-12-07T12:55:20;17.60;;;8.57;;
68940;SDS011;55982;51.476;7.552;2022-12-07T12:58:22;18.05;;;7.32;;
68940;SDS011;55982;51.476;7.552;2022-12-07T13:01:58;15.82;;;7.53;;
68940;SDS011;55982;51.476;7.552;2022-12-07T13:04:00;15.25;;;7.15;;
68940;SDS011;55982;51.476;7.552;2022-12-07T13:06:34;13.32;;;6.22;;
68940;SDS011;55982;51.476;7.552;2022-12-07T13:09:02;13.77;;;5.80;;
68940;SDS011;55982;51.476;7.552;2022-12-07T13:17:01;11.00;;;5.18;;
68940;SDS011;55982;51.476;7.552;2022-12-07T13:19:52;18.70;;;5.82;;
68940;SDS011;55982;51.476;7.552;2022-12-07T13:25:05;12.68;;;4.70;;
68940;SDS011;55982;51.476;7.552;2022-12-07T13:27:57;15.48;;;5.68;;
68940;SDS011;55982;51.476;7.552;2022-12-07T13:30:32;16.20;;;5.40;;
68940;SDS011;55982;51.476;7.552;2022-12-07T13:33:09;12.35;;;5.15;;
68940;SDS011;55982;51.476;7.552;2022-12-07T13:35:36;14.13;;;4.72;;
68940;SDS011;55982;51.476;7.552;2022-12-07T13:38:04;14.55;;;4.18;;
68940;SDS011;55982;51.476;7.552;2022-12-07T13:40:31;10.35;;;4.13;;
68940;SDS011;55982;51.476;7.552;2022-12-07T13:43:00;16.40;;;4.00;;
68940;SDS011;55982;51.476;7.552;2022-12-07T13:45:29;11.00;;;4.03;;
68940;SDS011;55982;51.476;7.552;2022-12-07T13:51:03;14.75;;;4.18;;
68940;SDS011;55982;51.476;7.552;2022-12-07T13:53:30;10.13;;;4.00;;
68940;SDS011;55982;51.476;7.552;2022-12-07T13:55:59;12.43;;;4.78;;
68940;SDS011;55982;51.476;7.552;2022-12-07T13:58:26;13.07;;;4.43;;
68940;SDS011;55982;51.476;7.552;2022-12-07T14:00:57;14.00;;;4.95;;
68940;SDS011;55982;51.476;7.552;2022-12-07T14:03:33;11.23;;;4.63;;
68940;SDS011;55982;51.476;7.552;2022-12-07T14:06:12;9.18;;;4.60;;
68940;SDS011;55982;51.476;7.552;2022-12-07T14:08:50;14.60;;;4.85;;
68940;SDS011;55982;51.476;7.552;2022-12-07T14:11:30;13.68;;;4.90;;
68940;SDS011;55982;51.476;7.552;2022-12-07T14:13:57;17.55;;;5.35;;
68940;SDS011;55982;51.476;7.552;2022-12-07T14:16:33;12.88;;;4.68;;
68940;SDS011;55982;51.476;7.552;2022-12-07T14:19:02;11.32;;;4.68;;
68940;SDS011;55982;51.476;7.552;2022-12-07T14:21:30;13.02;;;4.45;;
68940;SDS011;55982;51.476;7.552;2022-12-07T14:24:17;11.63;;;5.20;;
68940;SDS011;55982;51.476;7.552;2022-12-07T14:26:44;16.77;;;5.68;;
68940;SDS011;55982;51.476;7.552;2022-12-07T14:31:53;16.02;;;5.75;;
68940;SDS011;55982;51.476;7.552;2022-12-07T14:34:23;26.75;;;9.60;;
68940;SDS011;55982;51.476;7.552;2022-12-07T14:36:49;13.77;;;5.78;;
68940;SDS011;55982;51.476;7.552;2022-12-07T14:39:15;22.95;;;11.70;;
68940;SDS011;55982;51.476;7.552;2022-12-07T14:41:40;13.52;;;6.53;;
68940;SDS011;55982;51.476;7.552;2022-12-07T14:44:18;15.85;;;5.55;;
68940;SDS011;55982;51.476;7.552;2022-12-07T14:46:46;15.18;;;5.57;;
68940;SDS011;55982;51.476;7.552;2022-12-07T14:49:12;16.40;;;6.25;;
68940;SDS011;55982;51.476;7.552;2022-12-07T14:51:38;16.38;;;6.75;;
68940;SDS011;55982;51.476;7.552;2022-12-07T14:54:06;23.23;;;7.40;;
68940;SDS011;55982;51.476;7.552;2022-12-07T14:56:36;15.30;;;6.97;;
68940;SDS011;55982;51.476;7.552;2022-12-07T14:59:02;14.18;;;7.32;;
68940;SDS011;55982;51.476;7.552;2022-12-07T15:01:27;14.95;;;7.65;;
68940;SDS011;55982;51.476;7.552;2022-12-07T15:03:53;13.50;;;6.55;;
68940;SDS011;55982;51.476;7.552;2022-12-07T15:06:18;16.73;;;7.40;;
68940;SDS011;55982;51.476;7.552;2022-12-07T15:08:44;11.77;;;6.03;;
68940;SDS011;55982;51.476;7.552;2022-12-07T15:11:11;9.35;;;6.03;;
68940;SDS011;55982;51.476;7.552;2022-12-07T15:13:39;11.10;;;5.35;;
68940;SDS011;55982;51.476;7.552;2022-12-07T15:16:22;10.60;;;5.40;;
68940;SDS011;55982;51.476;7.552;2022-12-07T15:18:48;9.30;;;5.57;;
68940;SDS011;55982;51.476;7.552;2022-12-07T15:21:14;10.48;;;6.22;;
68940;SDS011;55982;51.476;7.552;2022-12-07T15:23:40;16.00;;;6.70;;
68940;SDS011;55982;51.476;7.552;2022-12-07T15:26:06;9.82;;;6.63;;
68940;SDS011;55982;51.476;7.552;2022-12-07T15:28:32;13.23;;;7.15;;
68940;SDS011;55982;51.476;7.552;2022-12-07T15:30:58;15.48;;;7.03;;
68940;SDS011;55982;51.476;7.552;2022-12-07T15:33:24;17.80;;;8.05;;
68940;SDS011;55982;51.476;7.552;2022-12-07T15:35:49;15.52;;;8.52;;
68940;SDS011;55982;51.476;7.552;2022-12-07T15:38:14;21.48;;;8.55;;
68940;SDS011;55982;51.476;7.552;2022-12-07T15:40:40;18.85;;;9.27;;
68940;SDS011;55982;51.476;7.552;2022-12-07T15:43:07;19.48;;;9.63;;
68940;SDS011;55982;51.476;7.552;2022-12-07T15:45:53;21.50;;;9.77;;
68940;SDS011;55982;51.476;7.552;2022-12-07T15:48:19;24.15;;;10.93;;
68940;SDS011;55982;51.476;7.552;2022-12-07T15:50:44;24.08;;;11.07;;
68940;SDS011;55982;51.476;7.552;2022-12-07T15:53:10;26.08;;;11.93;;
68940;SDS011;55982;51.476;7.552;2022-12-07T15:55:37;26.55;;;13.27;;
68940;SDS011;55982;51.476;7.552;2022-12-07T15:58:03;29.52;;;13.85;;
68940;SDS011;55982;51.476;7.552;2022-12-07T16:00:29;32.17;;;13.93;;
68940;SDS011;55982;51.476;7.552;2022-12-07T16:02:54;29.65;;;14.32;;
68940;SDS011;55982;51.476;7.552;2022-12-07T16:05:20;31.33;;;14.77;;
68940;SDS011;55982;51.476;7.552;2022-12-07T16:07:46;33.60;;;15.88;;
68940;SDS011;55982;51.476;7.552;2022-12-07T16:10:12;34.83;;;15.00;;
68940;SDS011;55982;51.476;7.552;2022-12-07T16:12:37;29.90;;;13.32;;
68940;SDS011;55982;51.476;7.552;2022-12-07T16:15:03;31.40;;;14.10;;
68940;SDS011;55982;51.476;7.552;2022-12-07T16:17:29;29.27;;;13.55;;
68940;SDS011;55982;51.476;7.552;2022-12-07T16:19:54;33.92;;;14.85;;
68940;SDS011;55982;51.476;7.552;2022-12-07T16:22:19;24.25;;;13.73;;
68940;SDS011;55982;51.476;7.552;2022-12-07T16:24:45;28.55;;;13.63;;
68940;SDS011;55982;51.476;7.552;2022-12-07T16:27:10;23.25;;;13.20;;
68940;SDS011;55982;51.476;7.552;2022-12-07T16:29:36;28.02;;;13.07;;
68940;SDS011;55982;51.476;7.552;2022-12-07T16:32:01;29.35;;;12.57;;
68940;SDS011;55982;51.476;7.552;2022-12-07T16:34:27;21.17;;;12.10;;
68940;SDS011;55982;51.476;7.552;2022-12-07T16:36:52;26.20;;;12.25;;
68940;SDS011;55982;51.476;7.552;2022-12-07T16:39:18;27.00;;;12.35;;
68940;SDS011;55982;51.476;7.552;2022-12-07T16:41:43;27.75;;;11.93;;
68940;SDS011;55982;51.476;7.552;2022-12-07T16:44:10;28.48;;;13.43;;
68940;SDS011;55982;51.476;7.552;2022-12-07T16:46:37;24.65;;;12.05;;